createdAt,value
2018-09-12T00:00:31.120Z,99.90
2018-09-12T00:02:59.960Z,99.90
2018-09-12T00:05:28.808Z,99.90
2018-09-12T00:07:57.639Z,99.90
2018-09-12T00:10:26.497Z,99.90
2018-09-12T00:12:55.464Z,99.90
2018-09-12T00:15:24.281Z,99.90
2018-09-12T00:17:53.106Z,99.90
2018-09-12T00:20:21.964Z,99.90
2018-09-12T00:22:50.937Z,99.90
2018-09-12T00:25:19.786Z,99.90
2018-09-12T00:27:48.796Z,99.90
2018-09-12T00:30:17.732Z,99.90
2018-09-12T00:32:46.583Z,99.90
2018-09-12T00:35:15.391Z,99.90
2018-09-12T00:37:44.239Z,99.90
2018-09-12T00:40:13.071Z,99.90
2018-09-12T00:42:41.927Z,99.90
2018-09-12T00:45:10.784Z,99.90
2018-09-12T00:47:39.625Z,99.90
2018-09-12T00:50:08.460Z,99.90
2018-09-12T00:52:37.305Z,99.90
2018-09-12T00:57:45.326Z,99.90
2018-09-12T01:00:15.974Z,99.90
2018-09-12T01:02:45.435Z,99.90
2018-09-12T01:05:14.315Z,99.90
2018-09-12T01:07:43.252Z,99.90
2018-09-12T01:10:12.128Z,99.90
2018-09-12T01:12:41.063Z,99.90
2018-09-12T01:15:09.968Z,99.90
2018-09-12T01:17:38.828Z,99.90
2018-09-12T01:20:07.717Z,99.90
2018-09-12T01:22:36.592Z,99.90
2018-09-12T01:25:05.439Z,99.90
2018-09-12T01:27:34.275Z,99.90
2018-09-12T01:30:06.439Z,99.90
2018-09-12T01:32:35.323Z,99.90
2018-09-12T01:35:04.288Z,99.90
2018-09-12T01:37:33.127Z,99.90
2018-09-12T01:40:01.984Z,99.90
2018-09-12T01:42:30.838Z,99.90
2018-09-12T01:44:59.704Z,99.90
2018-09-12T01:47:28.520Z,99.90
2018-09-12T01:49:57.365Z,99.90
2018-09-12T01:52:26.227Z,99.90
2018-09-12T01:54:55.074Z,99.90
2018-09-12T01:57:23.930Z,99.90
2018-09-12T01:59:52.768Z,99.90
2018-09-12T02:02:21.647Z,99.90
2018-09-12T02:04:50.559Z,99.90
2018-09-12T02:07:19.371Z,99.90
2018-09-12T02:09:48.342Z,99.90
2018-09-12T02:12:17.184Z,99.90
2018-09-12T02:14:46.030Z,99.90
2018-09-12T02:17:14.900Z,99.90
2018-09-12T02:19:43.802Z,99.90
2018-09-12T02:22:12.657Z,99.90
2018-09-12T02:24:41.558Z,99.90
2018-09-12T02:27:10.408Z,99.90
2018-09-12T02:29:39.316Z,99.90
2018-09-12T02:32:08.138Z,99.90
2018-09-12T02:34:36.995Z,99.90
2018-09-12T02:37:05.867Z,99.90
2018-09-12T02:39:34.711Z,99.90
2018-09-12T02:42:03.576Z,99.90
2018-09-12T02:44:32.468Z,99.90
2018-09-12T02:47:01.307Z,99.90
2018-09-12T02:49:30.155Z,99.90
2018-09-12T02:51:58.972Z,99.90
2018-09-12T02:54:27.781Z,99.90
2018-09-12T02:56:56.600Z,99.90
2018-09-12T02:59:30.524Z,99.90
2018-09-12T03:01:59.330Z,99.90
2018-09-12T03:04:46.235Z,99.90
2018-09-12T03:07:15.016Z,99.90
2018-09-12T03:09:43.923Z,99.90
2018-09-12T03:12:13.004Z,99.90
2018-09-12T03:14:41.836Z,99.90
2018-09-12T03:17:11.298Z,99.90
2018-09-12T03:19:40.136Z,99.90
2018-09-12T03:22:09.020Z,99.90
2018-09-12T03:24:37.979Z,99.90
2018-09-12T03:27:06.800Z,99.90
2018-09-12T03:29:35.633Z,99.90
2018-09-12T03:32:04.479Z,99.90
2018-09-12T03:34:33.475Z,99.90
2018-09-12T03:37:02.320Z,99.90
2018-09-12T03:39:31.125Z,99.90
2018-09-12T03:41:59.993Z,99.90
2018-09-12T03:44:28.830Z,99.90
2018-09-12T03:46:57.693Z,99.90
2018-09-12T03:49:26.543Z,99.90
2018-09-12T03:51:55.580Z,99.90
2018-09-12T03:54:24.438Z,99.90
2018-09-12T03:56:53.296Z,99.90
2018-09-12T03:59:28.127Z,99.90
2018-09-12T04:01:56.967Z,99.90
2018-09-12T04:04:25.900Z,99.90
2018-09-12T04:06:54.752Z,99.90
2018-09-12T04:09:23.597Z,99.90
2018-09-12T04:11:52.448Z,99.90
2018-09-12T04:14:21.252Z,99.90
2018-09-12T04:16:50.233Z,99.90
2018-09-12T04:19:19.074Z,99.90
2018-09-12T04:21:47.936Z,99.90
2018-09-12T04:24:16.859Z,99.90
2018-09-12T04:26:45.673Z,99.90
2018-09-12T04:29:14.556Z,99.90
2018-09-12T04:31:43.400Z,99.90
2018-09-12T04:34:12.240Z,99.90
2018-09-12T04:36:41.094Z,99.90
2018-09-12T04:39:11.132Z,99.90
2018-09-12T04:41:40.014Z,99.90
2018-09-12T04:44:08.895Z,99.90
2018-09-12T04:46:37.816Z,99.90
2018-09-12T04:49:07.183Z,99.90
2018-09-12T04:51:36.032Z,99.90
2018-09-12T04:54:04.903Z,99.90
2018-09-12T04:56:33.738Z,99.90
2018-09-12T04:59:02.600Z,99.90
2018-09-12T05:01:31.437Z,99.90
2018-09-12T05:04:00.293Z,99.90
2018-09-12T05:06:29.241Z,99.90
2018-09-12T05:08:58.097Z,99.90
2018-09-12T05:11:26.968Z,99.90
2018-09-12T05:13:56.103Z,99.90
2018-09-12T05:16:24.965Z,99.90
2018-09-12T05:18:53.813Z,99.90
2018-09-12T05:21:22.712Z,99.90
2018-09-12T05:23:51.561Z,99.90
2018-09-12T05:26:20.422Z,99.90
2018-09-12T05:28:49.248Z,99.90
2018-09-12T05:31:18.130Z,99.90
2018-09-12T05:33:46.992Z,99.90
2018-09-12T05:36:15.875Z,99.90
2018-09-12T05:38:44.762Z,99.90
2018-09-12T05:41:13.600Z,99.90
2018-09-12T05:43:42.575Z,99.90
2018-09-12T05:46:11.407Z,99.90
2018-09-12T05:48:40.310Z,99.90
2018-09-12T05:51:09.191Z,99.90
2018-09-12T05:53:38.040Z,99.90
2018-09-12T05:56:06.995Z,99.90
2018-09-12T05:58:35.853Z,99.90
2018-09-12T06:01:04.804Z,99.90
2018-09-12T06:03:33.757Z,99.90
2018-09-12T06:06:02.648Z,99.90
2018-09-12T06:08:31.564Z,99.90
2018-09-12T06:11:00.401Z,99.90
2018-09-12T06:13:29.246Z,99.90
2018-09-12T06:15:58.082Z,99.90
2018-09-12T06:18:26.927Z,99.90
2018-09-12T06:20:55.771Z,99.90
2018-09-12T06:23:24.632Z,99.90
2018-09-12T06:25:53.476Z,99.90
2018-09-12T06:28:22.285Z,99.90
2018-09-12T06:30:51.220Z,99.90
2018-09-12T06:33:20.031Z,99.90
2018-09-12T06:35:48.911Z,99.90
2018-09-12T06:38:17.822Z,99.90
2018-09-12T06:40:46.635Z,99.90
2018-09-12T06:43:15.484Z,99.90
2018-09-12T06:45:44.328Z,99.90
2018-09-12T06:48:13.161Z,99.90
2018-09-12T06:50:42.001Z,99.90
2018-09-12T06:53:10.846Z,99.90
2018-09-12T06:55:39.688Z,99.90
2018-09-12T06:58:08.539Z,99.90
2018-09-12T07:00:37.428Z,99.90
2018-09-12T07:03:06.358Z,99.90
2018-09-12T07:05:35.220Z,99.90
2018-09-12T07:08:04.080Z,99.90
2018-09-12T07:10:32.941Z,99.90
2018-09-12T07:13:01.817Z,99.90
2018-09-12T07:15:30.669Z,99.90
2018-09-12T07:17:59.504Z,99.90
2018-09-12T07:20:28.371Z,99.90
2018-09-12T07:22:57.247Z,99.90
2018-09-12T07:25:26.101Z,99.90
2018-09-12T07:27:54.983Z,99.90
2018-09-12T07:30:23.921Z,99.90
2018-09-12T07:32:52.747Z,99.90
2018-09-12T07:35:21.599Z,99.90
2018-09-12T07:37:50.478Z,99.90
2018-09-12T07:40:19.528Z,99.90
2018-09-12T07:42:48.437Z,99.90
2018-09-12T07:45:17.267Z,99.90
2018-09-12T07:47:46.094Z,99.90
2018-09-12T07:50:14.957Z,99.90
2018-09-12T07:52:43.784Z,99.90
2018-09-12T07:55:12.681Z,99.90
2018-09-12T07:57:41.519Z,99.90
2018-09-12T08:00:10.815Z,99.90
2018-09-12T08:02:39.620Z,99.90
2018-09-12T08:05:09.036Z,99.90
2018-09-12T08:07:37.951Z,99.90
2018-09-12T08:10:07.093Z,99.90
2018-09-12T08:12:35.939Z,99.90
2018-09-12T08:15:04.974Z,99.90
2018-09-12T08:17:33.815Z,99.90
2018-09-12T08:20:02.783Z,99.90
2018-09-12T08:22:31.648Z,99.90
2018-09-12T08:25:00.495Z,99.90
2018-09-12T08:27:29.466Z,99.90
2018-09-12T08:29:58.349Z,99.90
2018-09-12T08:32:39.254Z,99.90
2018-09-12T08:35:08.293Z,99.90
2018-09-12T08:37:37.165Z,99.90
2018-09-12T08:40:06.112Z,99.90
2018-09-12T08:42:35.027Z,99.90
2018-09-12T08:45:04.036Z,99.90
2018-09-12T08:47:32.944Z,99.90
2018-09-12T08:50:01.777Z,99.90
2018-09-12T08:52:30.615Z,99.90
2018-09-12T08:54:59.468Z,99.90
2018-09-12T08:57:28.343Z,99.90
2018-09-12T08:59:57.172Z,99.90
2018-09-12T09:02:26.042Z,99.90
2018-09-12T09:04:55.112Z,99.90
2018-09-12T09:07:23.981Z,99.90
2018-09-12T09:09:52.819Z,99.90
2018-09-12T09:12:21.663Z,99.90
2018-09-12T09:14:50.490Z,99.90
2018-09-12T09:17:19.385Z,99.90
2018-09-12T09:19:48.210Z,99.90
2018-09-12T09:22:17.045Z,99.90
2018-09-12T09:24:45.888Z,99.90
2018-09-12T09:27:14.747Z,99.90
2018-09-12T09:29:43.582Z,99.80
2018-09-12T09:32:12.432Z,99.40
2018-09-12T09:34:41.288Z,99.90
2018-09-12T09:37:10.111Z,99.90
2018-09-12T09:39:38.952Z,99.90
2018-09-12T09:42:07.784Z,99.90
2018-09-12T09:44:36.603Z,99.90
2018-09-12T09:47:05.497Z,99.90
2018-09-12T09:49:34.323Z,99.70
2018-09-12T09:52:03.183Z,99.90
2018-09-12T09:54:32.085Z,99.90
2018-09-12T09:57:00.901Z,99.90
2018-09-12T09:59:29.970Z,99.90
2018-09-12T10:02:04.489Z,99.50
2018-09-12T10:04:39.099Z,98.10
2018-09-12T10:07:13.579Z,97.50
2018-09-12T10:09:42.453Z,97.80
2018-09-12T10:12:11.281Z,98.10
2018-09-12T10:14:40.109Z,98.40
2018-09-12T10:17:08.934Z,98.90
2018-09-12T10:19:37.762Z,97.10
2018-09-12T10:22:06.716Z,97.10
2018-09-12T10:24:35.550Z,97.50
2018-09-12T10:27:04.427Z,97.20
2018-09-12T10:29:33.283Z,97.40
2018-09-12T10:32:02.112Z,98.10
2018-09-12T10:34:30.947Z,97.10
2018-09-12T10:36:59.794Z,95.80
2018-09-12T10:39:28.616Z,96.70
2018-09-12T10:41:57.608Z,97.50
2018-09-12T10:44:26.431Z,95.80
2018-09-12T10:46:55.290Z,98.00
2018-09-12T10:49:24.124Z,97.90
2018-09-12T10:51:53.023Z,96.00
2018-09-12T10:54:21.864Z,95.90
2018-09-12T10:56:50.718Z,95.90
2018-09-12T10:59:27.404Z,94.50
2018-09-12T11:01:56.239Z,95.00
2018-09-12T11:04:25.131Z,95.90
2018-09-12T11:06:54.018Z,94.40
2018-09-12T11:09:22.847Z,94.20
2018-09-12T11:11:51.727Z,93.80
2018-09-12T11:14:20.549Z,92.90
2018-09-12T11:16:49.495Z,93.40
2018-09-12T11:19:18.389Z,93.10
2018-09-12T11:21:47.237Z,93.20
2018-09-12T11:24:16.076Z,94.10
2018-09-12T11:26:44.917Z,94.30
2018-09-12T11:29:13.778Z,93.30
2018-09-12T11:31:42.620Z,92.70
2018-09-12T11:34:11.485Z,91.50
2018-09-12T11:36:40.271Z,91.40
2018-09-12T11:39:10.724Z,93.40
2018-09-12T11:41:39.695Z,91.00
2018-09-12T11:44:08.609Z,94.00
2018-09-12T11:46:37.468Z,90.30
2018-09-12T11:49:06.407Z,88.00
2018-09-12T11:51:35.249Z,91.10
2018-09-12T11:54:04.152Z,87.40
2018-09-12T11:56:33.039Z,86.40
2018-09-12T11:59:01.929Z,85.60
2018-09-12T12:01:30.817Z,83.60
2018-09-12T12:03:59.675Z,83.20
2018-09-12T12:06:28.535Z,86.80
2018-09-12T12:08:57.354Z,81.20
2018-09-12T12:11:26.224Z,82.50
2018-09-12T12:13:55.054Z,78.40
2018-09-12T12:16:23.887Z,81.00
2018-09-12T12:18:52.760Z,80.50
2018-09-12T12:21:21.599Z,81.70
2018-09-12T12:23:50.447Z,77.90
2018-09-12T12:26:19.290Z,75.90
2018-09-12T12:28:55.154Z,78.10
2018-09-12T12:31:23.995Z,72.00
2018-09-12T12:33:52.828Z,71.30
2018-09-12T12:36:21.687Z,70.30
2018-09-12T12:38:50.532Z,73.90
2018-09-12T12:41:19.407Z,68.90
2018-09-12T12:43:48.251Z,68.20
2018-09-12T12:46:17.076Z,66.40
2018-09-12T12:48:45.972Z,65.70
2018-09-12T12:51:14.860Z,66.60
2018-09-12T12:53:43.683Z,67.70
2018-09-12T12:56:12.531Z,63.60
2018-09-12T12:58:41.396Z,63.20
2018-09-12T13:01:10.286Z,64.10
2018-09-12T13:03:39.123Z,66.20
2018-09-12T13:06:07.961Z,62.70
2018-09-12T13:08:36.803Z,67.60
2018-09-12T13:11:06.111Z,63.50
2018-09-12T13:13:34.950Z,60.50
2018-09-12T13:16:03.839Z,62.20
2018-09-12T13:18:32.704Z,61.20
2018-09-12T13:21:01.688Z,58.30
2018-09-12T13:23:30.519Z,58.50
2018-09-12T13:25:59.395Z,62.90
2018-09-12T13:28:28.909Z,59.10
2018-09-12T13:30:57.839Z,57.80
2018-09-12T13:33:26.715Z,62.40
2018-09-12T13:35:55.540Z,59.20
2018-09-12T13:38:24.367Z,56.80
2018-09-12T13:40:53.225Z,61.40
2018-09-12T13:43:22.052Z,59.50
2018-09-12T13:45:50.892Z,58.60
2018-09-12T13:48:19.768Z,55.90
2018-09-12T13:50:48.600Z,55.50
2018-09-12T13:53:17.449Z,58.00
2018-09-12T13:55:46.328Z,60.20
2018-09-12T13:58:15.191Z,56.70
2018-09-12T14:00:46.815Z,57.80
2018-09-12T14:03:15.814Z,58.20
2018-09-12T14:05:44.632Z,58.80
2018-09-12T14:08:13.472Z,63.00
2018-09-12T14:10:42.316Z,61.70
2018-09-12T14:13:11.147Z,59.70
2018-09-12T14:15:40.008Z,60.60
2018-09-12T14:18:08.859Z,59.90
2018-09-12T14:20:37.708Z,63.90
2018-09-12T14:23:06.555Z,60.60
2018-09-12T14:25:35.460Z,62.10
2018-09-12T14:28:04.431Z,63.60
2018-09-12T14:30:33.231Z,62.80
2018-09-12T14:33:02.080Z,64.40
2018-09-12T14:35:30.935Z,59.80
2018-09-12T14:37:59.762Z,63.40
2018-09-12T14:40:28.677Z,61.80
2018-09-12T14:42:57.740Z,63.90
2018-09-12T14:45:26.636Z,62.30
2018-09-12T14:47:55.493Z,63.70
2018-09-12T14:50:24.314Z,63.80
2018-09-12T14:52:53.150Z,63.50
2018-09-12T14:55:21.999Z,65.50
2018-09-12T14:57:50.864Z,64.30
2018-09-12T15:00:28.842Z,66.30
2018-09-12T15:02:59.615Z,63.50
2018-09-12T15:05:28.459Z,65.90
2018-09-12T15:07:58.350Z,69.00
2018-09-12T15:10:28.174Z,63.50
2018-09-12T15:12:56.983Z,67.40
2018-09-12T15:15:25.831Z,65.30
2018-09-12T15:17:54.683Z,67.70
2018-09-12T15:20:23.586Z,68.10
2018-09-12T15:22:52.455Z,68.50
2018-09-12T15:25:21.295Z,68.60
2018-09-12T15:27:50.258Z,69.30
2018-09-12T15:30:19.105Z,70.50
2018-09-12T15:32:47.907Z,72.40
2018-09-12T15:35:16.772Z,72.60
2018-09-12T15:37:45.601Z,70.50
2018-09-12T15:40:14.449Z,70.40
2018-09-12T15:42:43.255Z,70.10
2018-09-12T15:45:12.136Z,71.40
2018-09-12T15:47:40.977Z,72.60
2018-09-12T15:50:09.832Z,74.00
2018-09-12T15:52:38.710Z,74.70
2018-09-12T15:55:07.580Z,73.40
2018-09-12T15:57:36.495Z,73.30
2018-09-12T16:00:06.040Z,73.10
2018-09-12T16:02:35.203Z,76.70
2018-09-12T16:05:04.799Z,74.50
2018-09-12T16:07:33.644Z,76.60
2018-09-12T16:10:02.572Z,74.00
2018-09-12T16:12:31.415Z,76.50
2018-09-12T16:15:00.244Z,78.00
2018-09-12T16:17:29.076Z,76.70
2018-09-12T16:19:57.970Z,78.00
2018-09-12T16:22:26.813Z,82.20
2018-09-12T16:24:55.673Z,84.10
2018-09-12T16:27:24.627Z,79.40
2018-09-12T16:29:53.447Z,84.80
2018-09-12T16:32:22.309Z,86.60
2018-09-12T16:34:51.163Z,89.00
2018-09-12T16:37:20.027Z,90.50
2018-09-12T16:39:48.880Z,90.80
2018-09-12T16:42:17.733Z,91.60
2018-09-12T16:44:46.569Z,91.90
2018-09-12T16:47:15.429Z,92.00
2018-09-12T16:49:44.272Z,92.40
2018-09-12T16:52:13.195Z,93.00
2018-09-12T16:54:42.040Z,93.60
2018-09-12T16:57:10.954Z,93.60
2018-09-12T16:59:39.785Z,94.00
2018-09-12T17:02:08.671Z,94.40
2018-09-12T17:04:37.508Z,94.90
2018-09-12T17:07:06.855Z,95.10
2018-09-12T17:09:35.796Z,95.50
2018-09-12T17:12:16.551Z,95.70
2018-09-12T17:14:45.435Z,96.00
2018-09-12T17:17:14.444Z,96.30
2018-09-12T17:19:43.277Z,96.90
2018-09-12T17:22:12.175Z,97.30
2018-09-12T17:24:41.067Z,97.80
2018-09-12T17:27:09.936Z,98.10
2018-09-12T17:29:38.897Z,98.60
2018-09-12T17:32:07.780Z,98.70
2018-09-12T17:34:36.674Z,99.00
2018-09-12T17:37:05.696Z,99.20
2018-09-12T17:39:34.573Z,99.40
2018-09-12T17:42:03.456Z,99.60
2018-09-12T17:44:32.367Z,99.90
2018-09-12T17:47:01.253Z,99.90
2018-09-12T17:49:30.994Z,99.90
2018-09-12T17:51:59.992Z,99.90
2018-09-12T17:54:28.962Z,99.90
2018-09-12T17:56:58.411Z,99.90
2018-09-12T17:59:28.912Z,99.90
2018-09-12T18:01:57.817Z,99.90
2018-09-12T18:04:26.711Z,99.90
2018-09-12T18:06:56.434Z,99.90
2018-09-12T18:09:25.899Z,99.90
2018-09-12T18:11:54.860Z,99.90
2018-09-12T18:14:23.903Z,99.90
2018-09-12T18:16:52.997Z,99.90
2018-09-12T18:19:21.913Z,99.90
2018-09-12T18:21:50.814Z,99.90
2018-09-12T18:24:19.725Z,99.90
2018-09-12T18:26:48.754Z,99.90
2018-09-12T18:29:18.496Z,99.90
2018-09-12T18:31:47.420Z,99.90
2018-09-12T18:34:16.331Z,99.90
2018-09-12T18:36:45.444Z,99.90
2018-09-12T18:39:14.360Z,99.90
2018-09-12T18:41:43.360Z,99.90
2018-09-12T18:44:12.281Z,99.90
2018-09-12T18:46:41.137Z,99.90
2018-09-12T18:49:11.060Z,99.90
2018-09-12T18:51:39.927Z,99.90
2018-09-12T18:54:08.808Z,99.90
2018-09-12T18:56:37.672Z,99.90
2018-09-12T18:59:06.938Z,99.90
2018-09-12T19:01:35.948Z,99.90
2018-09-12T19:04:04.795Z,99.90
2018-09-12T19:06:33.805Z,99.90
2018-09-12T19:09:03.403Z,99.90
2018-09-12T19:11:32.255Z,99.90
2018-09-12T19:14:01.106Z,99.90
2018-09-12T19:16:29.966Z,99.90
2018-09-12T19:18:58.820Z,99.90
2018-09-12T19:21:28.053Z,99.90
2018-09-12T19:23:58.263Z,99.90
2018-09-12T19:26:27.121Z,99.90
2018-09-12T19:28:55.947Z,99.90
2018-09-12T19:31:24.811Z,99.90
2018-09-12T19:33:53.755Z,99.90
2018-09-12T19:36:22.725Z,99.90
2018-09-12T19:38:51.573Z,99.90
2018-09-12T19:41:20.432Z,99.90
2018-09-12T19:43:49.347Z,99.90
2018-09-12T19:46:18.317Z,99.90
2018-09-12T19:48:47.275Z,99.90
2018-09-12T19:51:16.849Z,99.90
2018-09-12T19:53:45.934Z,99.90
2018-09-12T19:56:15.243Z,99.90
2018-09-12T19:58:44.660Z,99.90
2018-09-12T20:01:13.967Z,99.90
2018-09-12T20:03:42.922Z,99.90
2018-09-12T20:06:11.815Z,99.90
2018-09-12T20:08:40.848Z,99.90
2018-09-12T20:11:09.720Z,99.90
2018-09-12T20:13:38.731Z,99.90
2018-09-12T20:16:07.720Z,99.90
2018-09-12T20:18:36.563Z,99.90
2018-09-12T20:21:05.698Z,99.90
2018-09-12T20:23:34.726Z,99.90
2018-09-12T20:26:03.551Z,99.90
2018-09-12T20:28:41.603Z,99.90
2018-09-12T20:31:11.297Z,99.90
2018-09-12T20:33:40.308Z,99.90
2018-09-12T20:36:09.168Z,99.90
2018-09-12T20:38:38.004Z,99.90
2018-09-12T20:41:06.887Z,99.90
2018-09-12T20:43:35.686Z,99.90
2018-09-12T20:46:04.652Z,99.90
2018-09-12T20:48:33.527Z,99.90
2018-09-12T20:51:02.419Z,99.90
2018-09-12T20:53:31.267Z,99.90
2018-09-12T20:56:00.108Z,99.90
2018-09-12T20:58:28.960Z,99.90
2018-09-12T21:00:57.859Z,99.90
2018-09-12T21:03:27.579Z,99.90
2018-09-12T21:05:56.412Z,99.90
2018-09-12T21:08:25.263Z,99.90
2018-09-12T21:10:54.162Z,99.90
2018-09-12T21:13:23.026Z,99.90
2018-09-12T21:15:52.003Z,99.90
2018-09-12T21:18:21.068Z,99.90
2018-09-12T21:20:49.889Z,99.90
2018-09-12T21:23:18.786Z,99.90
2018-09-12T21:25:47.621Z,99.90
2018-09-12T21:28:16.456Z,99.90
2018-09-12T21:30:45.390Z,99.90
2018-09-12T21:33:14.306Z,99.90
2018-09-12T21:35:43.224Z,99.90
2018-09-12T21:38:12.122Z,99.90
2018-09-12T21:40:41.060Z,99.90
2018-09-12T21:43:09.919Z,99.90
2018-09-12T21:45:38.815Z,99.90
2018-09-12T21:48:07.743Z,99.90
2018-09-12T21:50:36.579Z,99.90
2018-09-12T21:53:05.436Z,99.90
2018-09-12T21:55:34.367Z,99.90
2018-09-12T21:58:03.191Z,99.90
2018-09-12T22:00:32.161Z,99.90
2018-09-12T22:03:01.016Z,99.90
2018-09-12T22:05:29.868Z,99.90
2018-09-12T22:07:58.819Z,99.90
2018-09-12T22:10:27.632Z,99.90
2018-09-12T22:12:56.484Z,99.90
2018-09-12T22:15:25.321Z,99.90
2018-09-12T22:17:54.271Z,99.90
2018-09-12T22:20:23.116Z,99.90
2018-09-12T22:22:51.948Z,99.90
2018-09-12T22:25:20.823Z,99.90
2018-09-12T22:27:49.682Z,99.90
2018-09-12T22:30:18.582Z,99.90
2018-09-12T22:32:47.403Z,99.90
2018-09-12T22:35:16.356Z,99.90
2018-09-12T22:37:45.185Z,99.90
2018-09-12T22:40:14.015Z,99.90
2018-09-12T22:42:42.855Z,99.90
2018-09-12T22:45:11.694Z,99.90
2018-09-12T22:47:40.644Z,99.90
2018-09-12T22:50:09.507Z,99.90
2018-09-12T22:52:38.338Z,99.90
2018-09-12T22:55:07.154Z,99.90
2018-09-12T22:57:35.978Z,99.90
2018-09-12T23:00:06.048Z,99.90
2018-09-12T23:02:34.876Z,99.90
2018-09-12T23:05:10.426Z,99.90
2018-09-12T23:07:39.260Z,99.90
2018-09-12T23:10:08.108Z,99.90
2018-09-12T23:12:36.932Z,99.90
2018-09-12T23:15:06.282Z,99.90
2018-09-12T23:17:35.123Z,99.90
2018-09-12T23:20:04.114Z,99.90
2018-09-12T23:22:32.953Z,99.90
2018-09-12T23:25:01.756Z,99.90
2018-09-12T23:27:30.819Z,99.90
2018-09-12T23:29:59.736Z,99.90
2018-09-12T23:32:28.543Z,99.90
2018-09-12T23:34:57.360Z,99.90
2018-09-12T23:37:26.499Z,99.90
2018-09-12T23:39:55.335Z,99.90
2018-09-12T23:42:24.212Z,99.90
2018-09-12T23:44:53.091Z,99.90
2018-09-12T23:47:21.915Z,99.90
2018-09-12T23:49:50.844Z,99.90
2018-09-12T23:52:19.764Z,99.90
2018-09-12T23:54:48.611Z,99.90
2018-09-12T23:57:17.449Z,99.90
2018-09-12T23:59:46.294Z,99.90
